Aérodrome :
LOGIN :

S'inscrire | Disclaimer

   EN    FR    IT 

 










Légende :    VFR   VFR Marginal   IFR   IFR Intensif   IFR Très Intensif
Visi : 
Plafond : 
>= 8 km
>= 3000ft
5 à 8 km
1000 à 3000 ft
1500m à 5 km
500 à 1000 ft
800 à 1500m
200 à 500 ft
< 800m
< 200 ft
Symboles :   Orages  Brouillard  Fortes neiges  Fortes précipitations  Vent > 20 kt
SIGMETs :   Divers  Orages  Givrage  Turbulence  Onde Orograph.  Cendres Volcan.







- Altitude de l'aérodrome : 278 ft
- Code IATA : RJK


LDRI - Rijeka

DERNIER METAR :
  • 180300Z 31002KT 9999 SCT045 19/18 Q1014

METARs EXPIRÉS :
  • 180230Z VRB02KT 9999 SCT045 20/19 Q1014
  • 180200Z 00000KT 9999 SCT045 20/18 Q1014
  • 180130Z 00000KT CAVOK 20/19 Q1014
  • 180100Z 24002KT CAVOK 20/18 Q1014
  • 180030Z 00000KT CAVOK 20/18 Q1014

TAF TAF LDRI
Valide du 18 à 00h jusqu'au 19 à 00h UTC


172325Z 1800/1900 VRB02KT 9999 FEW030 SCT045 TX21/1800Z TN16/1823Z
PROB30
TEMPO 1802/1806 TSRA SCT030 FEW050CB
BECMG 1803/1805 06012KT
TEMPO 1805/1811 06015G30KT
PROB30
TEMPO 1809/1900 VRB08KT
BECMG 1815/1817 06008KT
Pas de NOTAMs connus pour ce terrain.



MET'MAP, la Météo Aéronautique d'un coup d'oeil ! - Copyright ORBIFLY Décembre 2007 - Disclaimer

ORBIFLY MET'MAP TEAM :

Programmation & Développement : Alexandra Zaïnal
Conception & Développement : Baudouin d'Aumeries
Co-Programmation & Développement : Marc-Olivier Méhu
Soutien technique & logistique : Manuel Goepfert

Contact : metmap@orbifly.com




SOURCES & CREDITS :

   NOAA